Flight Track Log - Related Links

Times and Time Zones

All times are in EDT time to prevent confusion due to time zone crossing. See the ASQ4191 flight status page for this flight to view local times or setup timezone preferences in your user account.

Time Position Orientation Groundspeed Altitude Reporting Facility
EDT Latitude Longitude Course Direction KTS MPH feet Rate Location/Type
Wed 07:24:39 PM 40.7222 -74.1308 270° West 182 209 1,900  Level New York Center
Wed 07:25:37 PM 40.7700 -74.1303 North 242 278 3,200 1,815 Climbing New York Center
Wed 07:26:38 PM 40.7594 -74.2147 261° West 254 292 5,500 2,132 Climbing New York Center
Wed 07:27:38 PM 40.7444 -74.2989 257° West 282 325 7,500 2,132 Climbing New York Center
Wed 07:28:00 PM 40.6834 -74.8322 270° West  Level FlightAware Approximate
Wed 07:28:39 PM 40.7411 -74.4083 268° West 287 330 9,800  Level New York Center
Wed 07:29:00 PM 40.6833 -74.9653 270° West  Level FlightAware Approximate
Wed 07:29:39 PM 40.7358 -74.5067 266° West 295 339 10,500  Level New York Center
Wed 07:30:37 PM 40.7236 -74.6319 263° West 334 384 11,500 1,261 Climbing New York Center
Wed 07:31:38 PM 40.7106 -74.7708 263° West 353 406 13,000 1,339 Climbing New York Center
Wed 07:32:38 PM 40.6997 -74.9017 264° West 358 412 14,200 1,140 Climbing New York Center
Wed 07:33:39 PM 40.6889 -75.0322 264° West 365 420 15,300 1,109 Climbing New York Center
Wed 07:34:37 PM 40.6489 -75.1528 246° West 365 420 16,400 1,261 Climbing New York Center
Wed 07:35:38 PM 40.5992 -75.2589 238° Southwest 370 426 17,800 1,388 Climbing New York Center
Wed 07:36:38 PM 40.5444 -75.3811 240° Southwest 370 426 19,200 1,664 Climbing New York Center
Wed 07:37:37 PM 40.4964 -75.4925 240° Southwest 370 426 21,100 1,916 Climbing New York Center
Wed 07:38:37 PM 40.4464 -75.5956 238° Southwest 357 411 23,000 1,500 Climbing New York Center
Wed 07:39:37 PM 40.3981 -75.7011 239° Southwest 351 404 24,100 1,041 Climbing New York Center
Wed 07:40:38 PM 40.3497 -75.8094 240° Southwest 351 404 25,100 934 Climbing New York Center
Wed 07:41:39 PM 40.2975 -75.9117 236° Southwest 356 410 26,000 446 Climbing New York Center
Wed 07:42:39 PM 40.2444 -76.0247 238° Southwest 369 425 26,000 407 Level New York Center
Wed 07:43:37 PM 40.1869 -76.1453 238° Southwest 381 438 26,800 864 Climbing New York Center
Wed 07:44:37 PM 40.1336 -76.2608 239° Southwest 375 432 27,700 893 Climbing New York Center
Wed 07:45:38 PM 40.0783 -76.3731 237° Southwest 375 432 28,600 942 Climbing New York Center
Wed 07:46:38 PM 40.0292 -76.4856 240° Southwest 370 426 29,600 987 Climbing New York Center
Wed 07:48:16 PM 39.9442 -76.6686 239° Southwest 358 412 31,200 987 Climbing Washington Center
Wed 07:49:16 PM 39.8847 -76.7894 237° Southwest 353 406 32,200 992 Climbing Washington Center
Wed 07:50:17 PM 39.8336 -76.9019 239° Southwest 359 413 33,200 950 Climbing Washington Center
Wed 07:51:16 PM 39.7825 -77.0117 239° Southwest 359 413 34,100 958 Climbing Washington Center
Wed 07:52:16 PM 39.7311 -77.1186 238° Southwest 354 407 35,100 942 Climbing Washington Center
Wed 07:53:17 PM 39.6817 -77.2256 239° Southwest 354 407 36,000 443 Climbing Washington Center
Wed 07:54:18 PM 39.6325 -77.3294 238° Southwest 354 407 36,000  Level Washington Center
Wed 07:55:16 PM 39.5808 -77.4386 238° Southwest 354 407 36,000  Level Washington Center
Wed 07:56:16 PM 39.5247 -77.5556 238° Southwest 360 414 36,000  Level Washington Center
Wed 07:57:16 PM 39.4728 -77.6669 239° Southwest 365 420 36,000  Level Washington Center
Wed 07:58:17 PM 39.4186 -77.7811 238° Southwest 370 426 36,000  Level Washington Center
Wed 07:59:18 PM 39.3689 -77.8922 240° Southwest 370 426 36,000  Level Washington Center
Wed 08:00:18 PM 39.3250 -78.0036 243° Southwest 365 420 36,000  Level Washington Center
Wed 08:01:16 PM 39.2786 -78.1200 243° Southwest 360 414 36,000  Level Washington Center
Wed 08:02:16 PM 39.2347 -78.2311 243° Southwest 360 414 36,000  Level Washington Center
Wed 08:03:17 PM 39.1883 -78.3444 242° Southwest 360 414 36,000  Level Washington Center
Wed 08:04:17 PM 39.1419 -78.4578 242° Southwest 360 414 36,000  Level Washington Center
Wed 08:05:18 PM 39.0975 -78.5711 243° Southwest 360 414 36,000  Level Washington Center
Wed 08:06:16 PM 39.0611 -78.6900 249° West 365 420 36,000  Level Washington Center
Wed 08:07:17 PM 39.0328 -78.8169 254° West 365 420 36,000  Level Washington Center
Wed 08:08:18 PM 39.0042 -78.9439 254° West 371 427 36,000  Level Washington Center
Wed 08:09:16 PM 38.9736 -79.0733 253° West 377 434 36,000  Level Washington Center
Wed 08:10:16 PM 38.9425 -79.2053 253° West 377 434 36,000  Level Washington Center
Wed 08:11:17 PM 38.9114 -79.3372 253° West 377 434 36,000  Level Washington Center
Wed 08:12:16 PM 38.8825 -79.4586 253° West 388 447 36,000  Level Washington Center
Wed 08:13:16 PM 38.8486 -79.6058 254° West 388 447 36,000  Level Washington Center
Wed 08:14:16 PM 38.8217 -79.7244 254° West 394 453 36,000  Level Washington Center
Wed 08:16:01 PM 38.7619 -79.9522 251° West 384 442 36,000  Level Indianapolis Center
Wed 08:17:02 PM 38.7317 -80.0822 253° West 382 440 36,000  Level Indianapolis Center
Wed 08:18:04 PM 38.6989 -80.2125 252° West 383 441 36,000  Level Indianapolis Center
Wed 08:19:05 PM 38.6661 -80.3442 252° West 386 444 36,000  Level Indianapolis Center
Wed 08:20:07 PM 38.6344 -80.4764 253° West 388 447 36,000  Level Indianapolis Center
Wed 08:21:09 PM 38.6022 -80.6078 253° West 387 445 36,000  Level Indianapolis Center
Wed 08:22:10 PM 38.5683 -80.7417 252° West 394 453 36,000  Level Indianapolis Center
Wed 08:23:12 PM 38.5278 -80.9014 252° West 394 453 36,000  Level Indianapolis Center
Wed 08:24:13 PM 38.4942 -81.0358 252° West 396 456 36,000  Level Indianapolis Center
Wed 08:25:15 PM 38.4600 -81.1717 252° West 399 459 36,000  Level Indianapolis Center
Wed 08:26:17 PM 38.4253 -81.3069 252° West 397 457 36,000  Level Indianapolis Center
Wed 08:27:18 PM 38.3903 -81.4431 252° West 400 460 36,000  Level Indianapolis Center
Wed 08:28:20 PM 38.3561 -81.5794 252° West 400 460 36,000  Level Indianapolis Center
Wed 08:29:22 PM 38.3200 -81.7161 251° West 404 465 36,000  Level Indianapolis Center
Wed 08:30:24 PM 38.2850 -81.8519 252° West 403 464 36,000  Level Indianapolis Center
Wed 08:31:25 PM 38.2497 -81.9881 252° West 404 465 36,000  Level Indianapolis Center
Wed 08:32:27 PM 38.2128 -82.1231 251° West 404 465 36,000  Level Indianapolis Center
Wed 08:33:29 PM 38.1767 -82.2600 251° West 406 467 36,000  Level Indianapolis Center
Wed 08:34:30 PM 38.1333 -82.4225 251° West 404 465 36,000  Level Indianapolis Center
Wed 08:35:32 PM 38.0986 -82.5500 251° West 406 467 36,000  Level Indianapolis Center
Wed 08:36:34 PM 38.0628 -82.6853 251° West 405 466 36,000  Level Indianapolis Center
Wed 08:37:35 PM 38.0206 -82.8408 251° West 401 461 36,000  Level Indianapolis Center
Wed 08:38:37 PM 37.9833 -82.9769 251° West 406 467 36,000  Level Indianapolis Center
Wed 08:39:39 PM 37.9469 -83.1106 251° West 402 463 36,000  Level Indianapolis Center
Wed 08:40:40 PM 37.9100 -83.2458 251° West 406 467 36,000 -293 Level Indianapolis Center
Wed 08:41:42 PM 37.8708 -83.3819 250° West 410 472 35,400 -927 Descending Indianapolis Center
Wed 08:42:43 PM 37.8069 -83.5061 237° Southwest 420 483 34,100 -683 Descending Indianapolis Center
Wed 08:43:45 PM 37.7400 -83.6281 235° Southwest 423 487 34,000 -48 Descending Indianapolis Center
Wed 08:44:47 PM 37.6614 -83.7722 235° Southwest 427 491 34,000  Level Indianapolis Center
Wed 08:45:48 PM 37.5919 -83.8975 235° Southwest 435 501 34,000  Level Indianapolis Center
Wed 08:46:50 PM 37.5233 -84.0231 235° Southwest 436 502 34,000  Level Indianapolis Center
Wed 08:47:51 PM 37.4556 -84.1475 236° Southwest 434 499 34,000 -683 Level Indianapolis Center
Wed 08:48:53 PM 37.3881 -84.2717 236° Southwest 432 497 32,600 -1,452 Descending Indianapolis Center
Wed 08:49:55 PM 37.3186 -84.3933 234° Southwest 429 494 31,000 -1,610 Descending Indianapolis Center
Wed 08:50:56 PM 37.2386 -84.5367 235° Southwest 429 494 29,300 -1,268 Descending Indianapolis Center
Wed 08:51:58 PM 37.1703 -84.6625 236° Southwest 438 504 28,400 -732 Descending Indianapolis Center
Wed 08:52:59 PM 37.0981 -84.7881 234° Southwest 443 510 27,800 -488 Descending Indianapolis Center
Wed 08:54:01 PM 37.0350 -84.9006 235° Southwest 447 514 27,400 -878 Descending Indianapolis Center
Wed 08:55:02 PM 36.9481 -85.0547 235° Southwest 453 521 26,000 -1,463 Descending Indianapolis Center
Wed 08:56:04 PM 36.8747 -85.1847 235° Southwest 457 526 24,400 -1,317 Descending Indianapolis Center
Wed 08:57:05 PM 36.8031 -85.3108 235° Southwest 448 516 23,300 -1,041 Descending Indianapolis Center
Wed 08:59:20 PM 36.6569 -85.5953 237° Southwest 454 522 21,000 -1,415 Descending Memphis Center
Wed 09:00:20 PM 36.5972 -85.7228 240° Southwest 448 516 18,700 -2,108 Descending Memphis Center
Wed 09:01:11 PM 36.5506 -85.8208 239° Southwest 422 486 17,100 -2,549 Descending Indianapolis Center
Wed 09:02:13 PM 36.4861 -85.9589 240° Southwest 389 448 13,900 -2,976 Descending Indianapolis Center
Wed 09:03:14 PM 36.4317 -86.0728 239° Southwest 380 437 11,000 -1,854 Descending Indianapolis Center
Wed 09:04:16 PM 36.3794 -86.1808 239° Southwest 365 420 10,100 -439 Descending Indianapolis Center
Wed 09:05:17 PM 36.3292 -86.2861 239° Southwest 354 407 10,100 -581 Level Indianapolis Center
Wed 09:06:20 PM 36.2844 -86.3767 239° Southwest 325 374 8,900 -1,659 Descending Memphis Center
Wed 09:07:20 PM 36.2492 -86.4531 240° Southwest 281 323 6,700 -1,450 Descending Memphis Center
Wed 09:08:20 PM 36.2036 -86.5219 231° Southwest 260 299 6,000 -500 Descending Memphis Center
Wed 09:09:20 PM 36.1397 -86.5481 198° South 245 282 5,700 -800 Descending Memphis Center
Wed 09:10:20 PM 36.0778 -86.5742 199° South 245 282 4,400 -1,300 Descending Memphis Center

Login

Don't have an account? Register now (free) for customized features, flight alerts, and more!